Time;durP1;ratioP1;P1;durP2;ratioP2;P2;SDS_P1;SDS_P2;PMS_P1;PMS_P2;Temp;Humidity;BMP_temperature;BMP_pressure;BME280_temperature;BME280_humidity;BME280_pressure;Samples;Min_cycle;Max_cycle;Signal;HPM_P1;HPM_P2
2021/09/17 00:01:18;;;;;;;38.95;27.88;;;15.60;75.50;;;;;;5016456;28;20042;-82
2021/09/17 00:03:45;;;;;;;37.20;27.13;;;15.60;75.50;;;;;;5015813;28;20053;-82
2021/09/17 00:06:12;;;;;;;36.78;24.42;;;15.60;75.70;;;;;;5016027;28;20053;-82
2021/09/17 00:08:39;;;;;;;36.03;26.60;;;15.50;75.70;;;;;;5015773;28;20054;-82
2021/09/17 00:11:06;;;;;;;37.10;27.02;;;15.50;75.60;;;;;;5016066;28;20038;-82
2021/09/17 00:13:35;;;;;;;35.95;25.40;;;15.50;75.60;;;;;;5014988;28;20057;-82
2021/09/17 00:16:03;;;;;;;34.55;25.45;;;15.40;75.70;;;;;;5013631;28;20046;-82
2021/09/17 00:18:30;;;;;;;34.85;24.98;;;15.40;75.70;;;;;;5015801;28;20319;-82
2021/09/17 00:20:57;;;;;;;33.33;26.40;;;15.40;75.80;;;;;;5015385;28;20050;-83
2021/09/17 00:23:24;;;;;;;36.65;25.27;;;15.40;75.70;;;;;;5015718;28;20050;-82
2021/09/17 00:25:51;;;;;;;35.17;26.13;;;15.40;75.70;;;;;;5015695;28;20041;-82
2021/09/17 00:28:18;;;;;;;37.22;26.90;;;15.40;75.70;;;;;;5013383;28;20053;-82
2021/09/17 00:30:45;;;;;;;34.17;25.13;;;15.30;75.80;;;;;;5014874;28;20560;-82
2021/09/17 00:33:12;;;;;;;29.40;22.80;;;15.30;75.70;;;;;;5015392;28;20050;-82
2021/09/17 00:35:39;;;;;;;32.67;23.77;;;15.30;75.60;;;;;;5018452;28;20076;-82
2021/09/17 00:38:06;;;;;;;33.72;25.20;;;15.30;75.40;;;;;;5017414;28;20041;-82
2021/09/17 00:40:33;;;;;;;32.63;22.73;;;15.20;75.30;;;;;;5014554;28;20069;-82
2021/09/17 00:43:00;;;;;;;32.05;24.02;;;15.20;75.30;;;;;;5017524;28;20572;-83
2021/09/17 00:45:27;;;;;;;39.95;26.67;;;15.20;75.30;;;;;;5017784;28;20095;-83
2021/09/17 00:47:54;;;;;;;32.80;23.95;;;15.10;75.40;;;;;;5018072;28;20461;-82
2021/09/17 00:50:22;;;;;;;35.58;25.20;;;15.10;75.50;;;;;;5018269;28;20089;-82
2021/09/17 00:52:50;;;;;;;31.05;25.08;;;15.10;75.60;;;;;;5014753;28;20092;-83
2021/09/17 00:55:18;;;;;;;38.08;26.08;;;15.10;75.70;;;;;;5015798;28;20072;-82
2021/09/17 00:57:45;;;;;;;35.35;25.85;;;15.00;75.70;;;;;;5014740;28;20396;-82
2021/09/17 01:00:14;;;;;;;29.88;22.30;;;15.00;75.70;;;;;;5014610;28;20049;-82
2021/09/17 01:02:43;;;;;;;31.92;23.50;;;15.00;75.60;;;;;;5014542;28;20403;-82
2021/09/17 01:05:12;;;;;;;31.08;22.95;;;14.90;75.50;;;;;;5014931;28;20042;-82
2021/09/17 01:07:40;;;;;;;33.45;23.80;;;14.90;75.40;;;;;;5014602;28;20050;-82
2021/09/17 01:10:08;;;;;;;30.23;22.80;;;14.90;75.50;;;;;;5028053;28;20461;-82
2021/09/17 01:12:37;;;;;;;34.60;24.95;;;14.90;75.60;;;;;;5014890;28;20050;-82
2021/09/17 01:15:07;;;;;;;33.25;24.83;;;14.80;75.70;;;;;;5017176;28;20049;-83
2021/09/17 01:17:36;;;;;;;27.42;20.88;;;14.80;75.60;;;;;;5017539;28;20465;-83
2021/09/17 01:20:08;;;;;;;28.63;21.08;;;14.80;75.50;;;;;;5015773;28;20514;-83
2021/09/17 01:22:35;;;;;;;28.83;21.35;;;14.80;75.40;;;;;;5013721;28;20096;-83
2021/09/17 01:25:07;;;;;;;31.58;21.00;;;14.70;75.30;;;;;;5016642;28;20054;-82
2021/09/17 01:27:34;;;;;;;32.80;22.02;;;14.70;75.20;;;;;;5017330;28;20046;-83
2021/09/17 01:30:02;;;;;;;31.63;23.10;;;14.70;75.20;;;;;;5017041;28;20403;-83
2021/09/17 01:32:29;;;;;;;30.73;21.05;;;14.60;75.30;;;;;;5017459;28;20045;-82
2021/09/17 01:34:56;;;;;;;30.38;21.27;;;14.60;75.30;;;;;;5014999;28;20076;-83
2021/09/17 01:37:23;;;;;;;31.00;22.98;;;14.60;75.40;;;;;;5014998;28;20119;-82
2021/09/17 01:39:50;;;;;;;32.33;23.17;;;14.60;75.50;;;;;;5016275;28;20073;-83
2021/09/17 01:42:17;;;;;;;30.27;21.48;;;14.60;75.70;;;;;;5017152;28;20092;-83
2021/09/17 01:44:43;;;;;;;32.03;21.67;;;14.50;75.70;;;;;;5016779;28;20057;-83
2021/09/17 01:47:10;;;;;;;27.52;21.63;;;14.50;75.60;;;;;;5016717;28;20695;-82
2021/09/17 01:49:37;;;;;;;28.25;20.98;;;14.50;75.60;;;;;;5012812;28;20053;-82
2021/09/17 01:52:05;;;;;;;30.58;21.10;;;14.40;75.50;;;;;;5015938;28;20100;-82
2021/09/17 01:54:32;;;;;;;28.05;21.15;;;14.40;75.40;;;;;;5016875;28;20049;-83
2021/09/17 01:56:58;;;;;;;26.02;19.50;;;14.40;75.40;;;;;;5016839;28;20470;-82
2021/09/17 01:59:25;;;;;;;27.83;19.50;;;14.40;75.40;;;;;;5016443;28;20099;-83
2021/09/17 02:01:52;;;;;;;25.38;19.17;;;14.40;75.30;;;;;;5014049;28;20099;-83
2021/09/17 02:04:19;;;;;;;27.85;21.27;;;14.40;75.30;;;;;;5014396;28;20053;-83
2021/09/17 02:06:46;;;;;;;27.48;18.75;;;14.30;75.40;;;;;;5016310;28;20053;-82
2021/09/17 02:09:13;;;;;;;25.58;19.35;;;14.30;75.30;;;;;;5016874;28;20100;-83
2021/09/17 02:11:40;;;;;;;34.42;19.90;;;14.30;75.30;;;;;;5016273;28;20092;-83
2021/09/17 02:14:07;;;;;;;32.70;20.83;;;14.20;75.30;;;;;;5015398;28;20107;-83
2021/09/17 02:16:35;;;;;;;26.33;19.80;;;14.20;75.30;;;;;;5012838;28;20100;-83
2021/09/17 02:19:02;;;;;;;26.50;20.35;;;14.20;75.40;;;;;;5015522;28;20058;-83
2021/09/17 02:21:28;;;;;;;25.52;19.13;;;14.20;75.30;;;;;;5016450;28;20054;-82
2021/09/17 02:23:55;;;;;;;23.35;17.20;;;14.10;75.30;;;;;;5016540;28;20099;-82
2021/09/17 02:26:22;;;;;;;24.83;19.90;;;14.10;75.40;;;;;;5016185;28;20046;-82
2021/09/17 02:28:49;;;;;;;23.65;18.10;;;14.10;75.30;;;;;;5013065;28;20542;-83
2021/09/17 02:31:17;;;;;;;25.63;17.65;;;14.00;75.30;;;;;;5014189;28;20069;-83
2021/09/17 02:33:44;;;;;;;21.55;16.58;;;14.00;75.20;;;;;;5013340;28;20061;-83
2021/09/17 02:36:11;;;;;;;21.85;14.90;;;14.00;75.10;;;;;;5013383;28;20612;-83
2021/09/17 02:38:38;;;;;;;19.45;14.75;;;13.90;75.00;;;;;;5013375;28;20046;-82
2021/09/17 02:41:05;;;;;;;23.98;15.18;;;13.90;75.00;;;;;;5013037;28;20046;-83
2021/09/17 02:43:32;;;;;;;17.73;14.55;;;13.90;74.90;;;;;;5012126;28;20073;-82
2021/09/17 02:45:59;;;;;;;25.73;14.50;;;13.90;74.90;;;;;;5012033;28;20050;-83
2021/09/17 02:48:29;;;;;;;21.02;16.30;;;13.90;75.00;;;;;;5008395;28;20068;-83
2021/09/17 02:50:56;;;;;;;21.77;17.13;;;13.90;75.10;;;;;;5018567;28;20522;-83
2021/09/17 02:53:23;;;;;;;22.63;17.40;;;13.90;75.20;;;;;;5013063;28;20046;-82
2021/09/17 02:55:50;;;;;;;21.05;16.42;;;13.80;75.40;;;;;;5012934;28;20095;-82
2021/09/17 02:58:17;;;;;;;19.27;15.35;;;13.80;75.40;;;;;;5011193;28;20577;-83
2021/09/17 03:00:44;;;;;;;20.67;15.73;;;13.70;75.40;;;;;;5012856;28;20466;-83
2021/09/17 03:03:11;;;;;;;21.00;16.63;;;13.80;75.40;;;;;;5013109;28;20057;-83
2021/09/17 03:05:38;;;;;;;24.50;17.17;;;13.70;75.50;;;;;;5012993;28;20620;-83
2021/09/17 03:08:05;;;;;;;20.52;16.35;;;13.70;75.50;;;;;;5013090;28;20493;-83
2021/09/17 03:10:32;;;;;;;26.00;18.42;;;13.60;75.50;;;;;;5011476;28;20196;-83
2021/09/17 03:12:59;;;;;;;23.13;17.80;;;13.60;75.60;;;;;;5015210;28;20670;-82
2021/09/17 03:15:27;;;;;;;21.55;16.30;;;13.60;75.60;;;;;;5016020;28;20046;-83
2021/09/17 03:17:54;;;;;;;23.05;18.75;;;13.60;75.70;;;;;;5015986;28;20053;-83
2021/09/17 03:20:21;;;;;;;21.88;16.85;;;13.60;75.80;;;;;;5015793;28;20053;-83
2021/09/17 03:22:48;;;;;;;24.33;18.13;;;13.50;75.70;;;;;;5012414;28;20599;-83
2021/09/17 03:25:15;;;;;;;22.95;16.23;;;13.50;75.70;;;;;;5013703;28;20104;-83
2021/09/17 03:27:43;;;;;;;21.10;17.48;;;13.50;75.60;;;;;;5019702;28;21100;-83
2021/09/17 03:30:11;;;;;;;20.63;15.43;;;13.40;75.60;;;;;;5019440;28;20502;-82
2021/09/17 03:32:38;;;;;;;19.20;15.15;;;13.40;75.70;;;;;;5019608;28;20057;-83
2021/09/17 03:35:06;;;;;;;22.20;15.23;;;13.40;75.70;;;;;;5018522;28;20517;-83
2021/09/17 03:37:33;;;;;;;17.38;14.38;;;13.40;75.60;;;;;;5015993;28;20103;-83
2021/09/17 03:40:00;;;;;;;16.00;13.68;;;13.40;75.50;;;;;;5018035;28;20057;-83
2021/09/17 03:42:29;;;;;;;17.38;14.13;;;13.40;75.50;;;;;;5019487;28;20045;-83
2021/09/17 03:44:56;;;;;;;13.77;12.40;;;13.30;75.40;;;;;;5019336;28;20045;-83
2021/09/17 03:47:23;;;;;;;14.15;12.60;;;13.30;75.40;;;;;;5019286;28;20042;-83
2021/09/17 03:49:50;;;;;;;14.77;12.73;;;13.30;75.30;;;;;;5016016;28;20457;-83
2021/09/17 03:52:17;;;;;;;15.30;13.38;;;13.20;75.30;;;;;;5016849;28;20050;-83
2021/09/17 03:54:44;;;;;;;14.98;13.38;;;13.20;75.30;;;;;;5015723;28;20076;-83
2021/09/17 03:57:11;;;;;;;14.05;11.95;;;13.20;75.30;;;;;;5016165;28;20046;-83
2021/09/17 03:59:37;;;;;;;12.80;11.48;;;13.20;75.30;;;;;;5016243;28;20054;-83
2021/09/17 04:02:05;;;;;;;13.27;11.88;;;13.10;75.30;;;;;;5016177;28;20042;-83
2021/09/17 04:04:32;;;;;;;15.13;13.52;;;13.10;75.30;;;;;;5014553;28;20576;-83
2021/09/17 04:06:59;;;;;;;16.45;13.90;;;13.10;75.30;;;;;;5018109;28;20050;-83
2021/09/17 04:09:26;;;;;;;14.52;11.93;;;13.10;75.40;;;;;;5018500;28;20046;-83
2021/09/17 04:11:53;;;;;;;15.05;12.18;;;13.00;75.40;;;;;;5018874;28;20478;-83
2021/09/17 04:14:20;;;;;;;14.80;13.20;;;13.00;75.60;;;;;;5018906;28;20107;-83
2021/09/17 04:16:47;;;;;;;16.63;13.48;;;13.00;75.70;;;;;;5015335;28;20046;-83
2021/09/17 04:19:14;;;;;;;16.52;14.25;;;13.00;75.90;;;;;;5016829;28;20056;-82
2021/09/17 04:21:41;;;;;;;19.10;14.23;;;12.90;76.00;;;;;;5018510;28;20049;-84
2021/09/17 04:24:08;;;;;;;18.33;15.35;;;13.00;76.10;;;;;;5018329;28;20054;-83
2021/09/17 04:26:35;;;;;;;15.82;12.55;;;13.00;76.30;;;;;;5018607;28;20564;-83
2021/09/17 04:29:02;;;;;;;15.82;14.13;;;13.00;76.40;;;;;;5016868;28;20576;-83
2021/09/17 04:31:30;;;;;;;18.17;15.07;;;13.00;76.50;;;;;;5015417;28;20108;-83
2021/09/17 04:33:58;;;;;;;17.73;15.18;;;13.00;76.70;;;;;;5017530;28;20058;-84
2021/09/17 04:36:25;;;;;;;16.60;14.77;;;13.10;76.80;;;;;;5018311;28;20502;-84
2021/09/17 04:38:52;;;;;;;20.52;14.50;;;13.00;76.80;;;;;;5017268;28;20446;-83
2021/09/17 04:41:19;;;;;;;20.98;15.52;;;13.00;76.90;;;;;;5018220;28;20695;-83
2021/09/17 04:43:46;;;;;;;17.52;14.00;;;13.00;76.90;;;;;;4998726;28;20049;-84
2021/09/17 04:46:12;;;;;;;22.33;13.80;;;13.00;77.00;;;;;;5012844;28;20100;-83
2021/09/17 04:48:39;;;;;;;25.52;18.92;;;13.00;77.10;;;;;;5015921;28;20050;-83
2021/09/17 04:51:06;;;;;;;21.95;14.93;;;13.00;77.20;;;;;;5014682;28;20465;-83
2021/09/17 04:53:33;;;;;;;21.23;17.83;;;13.10;77.30;;;;;;5015072;28;20049;-83
2021/09/17 04:56:00;;;;;;;20.50;15.85;;;13.10;77.40;;;;;;5015204;28;20112;-83
2021/09/17 04:58:43;;;;;;;18.25;15.15;;;13.10;77.50;;;;;;5015103;28;20042;-83
2021/09/17 05:01:10;;;;;;;19.33;16.33;;;13.10;77.60;;;;;;5012713;28;20054;-83
2021/09/17 05:03:37;;;;;;;15.73;13.57;;;13.10;77.60;;;;;;5015097;28;20502;-83
2021/09/17 05:06:04;;;;;;;16.83;13.15;;;13.10;77.70;;;;;;5014541;28;20057;-83
2021/09/17 05:08:31;;;;;;;16.50;13.73;;;13.10;77.70;;;;;;5017637;28;20038;-83
2021/09/17 05:10:58;;;;;;;19.08;13.82;;;13.10;77.80;;;;;;5015854;28;20506;-83
2021/09/17 05:13:25;;;;;;;19.33;13.50;;;13.20;77.80;;;;;;5024998;28;20103;-83
2021/09/17 05:15:52;;;;;;;15.70;11.27;;;13.20;77.80;;;;;;5018482;28;20617;-83
2021/09/17 05:18:19;;;;;;;16.63;13.07;;;13.20;77.80;;;;;;5025539;28;20046;-83
2021/09/17 05:20:46;;;;;;;16.30;12.57;;;13.20;77.90;;;;;;5028268;28;20072;-83
2021/09/17 05:23:13;;;;;;;13.73;11.07;;;13.20;77.90;;;;;;5027671;28;20045;-83
2021/09/17 05:25:40;;;;;;;16.17;12.43;;;13.20;77.90;;;;;;5027887;28;20096;-83
2021/09/17 05:28:07;;;;;;;11.93;9.75;;;13.20;77.90;;;;;;5027682;28;20045;-85
2021/09/17 05:30:34;;;;;;;13.70;11.23;;;13.20;78.00;;;;;;5027479;28;20057;-83
2021/09/17 05:33:02;;;;;;;14.50;12.05;;;13.20;78.00;;;;;;5027319;28;20453;-83
2021/09/17 05:35:29;;;;;;;13.15;10.70;;;13.20;78.00;;;;;;5026808;28;20470;-84
2021/09/17 05:37:56;;;;;;;13.07;9.45;;;13.20;78.00;;;;;;5022796;28;20501;-84
2021/09/17 05:40:23;;;;;;;12.55;10.73;;;13.20;78.00;;;;;;5030381;28;20115;-83
2021/09/17 05:42:50;;;;;;;13.30;10.35;;;13.20;78.10;;;;;;5030427;28;20394;-83
2021/09/17 05:45:17;;;;;;;13.48;10.75;;;13.10;78.00;;;;;;5028398;28;20501;-84
2021/09/17 05:47:44;;;;;;;12.07;10.45;;;13.20;78.00;;;;;;5028292;28;20113;-83
2021/09/17 05:50:12;;;;;;;12.70;9.70;;;13.20;78.00;;;;;;5027071;28;20461;-84
2021/09/17 05:52:39;;;;;;;10.60;8.35;;;13.10;78.00;;;;;;5014741;28;20046;-83
2021/09/17 05:55:08;;;;;;;11.43;9.32;;;13.10;78.10;;;;;;5022512;28;20050;-83
2021/09/17 05:57:35;;;;;;;13.13;9.23;;;13.10;78.10;;;;;;5027395;28;20513;-83
2021/09/17 06:00:09;;;;;;;12.38;9.27;;;13.10;78.10;;;;;;5028011;28;20050;-83
2021/09/17 06:02:36;;;;;;;10.07;8.60;;;13.10;78.10;;;;;;5027966;28;20045;-83
2021/09/17 06:05:04;;;;;;;10.48;8.77;;;13.10;78.20;;;;;;5027522;28;20049;-84
2021/09/17 06:07:31;;;;;;;8.82;6.90;;;13.10;78.20;;;;;;5029430;28;20098;-83
2021/09/17 06:10:04;;;;;;;9.02;7.60;;;13.10;78.20;;;;;;5031290;28;20497;-83
2021/09/17 06:12:31;;;;;;;9.95;8.48;;;13.10;78.20;;;;;;5010527;28;20049;-83
2021/09/17 06:14:59;;;;;;;10.00;8.10;;;13.20;78.30;;;;;;5027794;28;20045;-83
2021/09/17 06:17:26;;;;;;;9.15;6.85;;;13.10;78.30;;;;;;5027541;28;20095;-84
2021/09/17 06:19:53;;;;;;;8.60;6.55;;;13.10;78.30;;;;;;5027529;28;20068;-83
2021/09/17 06:22:19;;;;;;;9.45;6.68;;;13.10;78.30;;;;;;5030340;28;20057;-83
2021/09/17 06:24:46;;;;;;;9.00;6.72;;;13.10;78.30;;;;;;5029273;28;20054;-83
2021/09/17 06:27:13;;;;;;;9.38;7.28;;;13.10;78.40;;;;;;5027663;28;20464;-83
2021/09/17 06:29:40;;;;;;;10.50;8.43;;;13.20;78.50;;;;;;5027513;28;20049;-83
2021/09/17 06:32:07;;;;;;;13.82;8.93;;;13.20;78.60;;;;;;5029202;28;20096;-83
2021/09/17 06:34:34;;;;;;;9.55;7.40;;;13.20;78.70;;;;;;5028548;28;20049;-83
2021/09/17 06:37:01;;;;;;;10.55;7.65;;;13.10;78.90;;;;;;5030715;28;20050;-83
2021/09/17 06:39:28;;;;;;;12.95;9.88;;;13.20;79.00;;;;;;5026357;28;20050;-83
2021/09/17 06:41:55;;;;;;;12.38;9.38;;;13.20;79.20;;;;;;5026322;28;20490;-83
2021/09/17 06:44:22;;;;;;;11.10;9.10;;;13.20;79.50;;;;;;5026398;28;20057;-83
2021/09/17 06:46:50;;;;;;;15.52;11.88;;;13.20;79.60;;;;;;5026355;28;20418;-83
2021/09/17 06:49:17;;;;;;;12.10;9.23;;;13.20;79.80;;;;;;5028626;28;20068;-83
2021/09/17 06:51:43;;;;;;;13.95;10.00;;;13.20;79.90;;;;;;5027223;28;20506;-83
2021/09/17 06:54:10;;;;;;;12.20;9.43;;;13.30;80.10;;;;;;5026152;28;20064;-83
2021/09/17 06:56:37;;;;;;;15.57;12.20;;;13.40;80.20;;;;;;5026227;28;20139;-83
2021/09/17 06:59:04;;;;;;;15.25;11.77;;;13.40;80.20;;;;;;5026373;28;20046;-83
2021/09/17 07:01:31;;;;;;;15.98;12.23;;;13.40;80.40;;;;;;5029612;28;20058;-83
2021/09/17 07:03:59;;;;;;;16.15;11.27;;;13.40;80.50;;;;;;5033153;28;20088;-83
2021/09/17 07:06:26;;;;;;;13.82;10.65;;;13.50;80.60;;;;;;5012688;28;20052;-83
2021/09/17 07:08:54;;;;;;;19.42;13.77;;;13.50;80.60;;;;;;5029957;28;20111;-83
2021/09/17 07:11:23;;;;;;;20.58;14.65;;;13.60;80.70;;;;;;5031880;28;20045;-84
2021/09/17 07:13:50;;;;;;;14.05;10.25;;;13.60;80.80;;;;;;5030184;28;20064;-83
2021/09/17 07:16:17;;;;;;;15.35;11.68;;;13.60;81.00;;;;;;5032459;28;20083;-83
2021/09/17 07:18:44;;;;;;;19.83;12.00;;;13.70;81.00;;;;;;5033030;28;20049;-83
2021/09/17 07:21:11;;;;;;;23.15;14.77;;;13.80;81.10;;;;;;5029842;28;20045;-83
2021/09/17 07:23:38;;;;;;;20.80;14.07;;;13.80;81.20;;;;;;5029754;28;20407;-83
2021/09/17 07:26:04;;;;;;;28.83;16.52;;;13.90;81.30;;;;;;5029850;28;20091;-83
2021/09/17 07:28:33;;;;;;;17.00;12.52;;;13.90;81.30;;;;;;5031225;28;20065;-83
2021/09/17 07:31:00;;;;;;;26.10;15.45;;;14.00;81.60;;;;;;5032631;28;20132;-83
2021/09/17 07:33:28;;;;;;;28.92;19.45;;;14.10;81.70;;;;;;5029664;28;20053;-83
2021/09/17 07:35:55;;;;;;;40.10;24.02;;;14.20;81.80;;;;;;5029737;28;20054;-83
2021/09/17 07:38:22;;;;;;;58.70;30.15;;;14.20;82.00;;;;;;5029573;28;20050;-83
2021/09/17 07:40:49;;;;;;;56.47;27.90;;;14.40;82.20;;;;;;5029582;28;20050;-83
2021/09/17 07:43:16;;;;;;;87.72;38.60;;;14.40;82.40;;;;;;5032537;28;20041;-83
2021/09/17 07:45:42;;;;;;;66.70;35.30;;;14.50;82.70;;;;;;5029986;28;20162;-83
2021/09/17 07:48:10;;;;;;;76.22;36.97;;;14.60;82.90;;;;;;5029338;28;20045;-83
2021/09/17 07:50:39;;;;;;;61.65;35.50;;;14.70;83.10;;;;;;5030997;28;20130;-83
2021/09/17 07:53:06;;;;;;;94.20;43.53;;;14.90;83.30;;;;;;5029401;28;20465;-83
2021/09/17 07:55:34;;;;;;;104.55;46.33;;;14.90;83.40;;;;;;5030617;28;20049;-83
2021/09/17 07:58:03;;;;;;;188.05;59.42;;;15.10;83.60;;;;;;5032756;28;20593;-83
2021/09/17 08:00:31;;;;;;;132.20;51.85;;;15.20;83.90;;;;;;5028747;28;20418;-83
2021/09/17 08:02:58;;;;;;;83.65;41.25;;;15.30;84.30;;;;;;5028991;28;20050;-84
2021/09/17 08:05:25;;;;;;;101.55;46.55;;;15.40;84.40;;;;;;5028979;28;20425;-83
2021/09/17 08:07:53;;;;;;;88.80;42.38;;;15.60;84.40;;;;;;5029357;28;20042;-83
2021/09/17 08:10:20;;;;;;;77.97;40.95;;;15.70;84.30;;;;;;5031282;28;20140;-83
2021/09/17 08:12:47;;;;;;;85.85;41.60;;;15.90;84.40;;;;;;5029794;28;20049;-83
2021/09/17 08:15:14;;;;;;;66.78;35.75;;;16.00;84.20;;;;;;5028614;28;20152;-83
2021/09/17 08:17:41;;;;;;;76.60;38.13;;;16.10;84.20;;;;;;5028800;28;20052;-83
2021/09/17 08:20:09;;;;;;;62.90;35.78;;;16.20;84.10;;;;;;5028733;28;20111;-83
2021/09/17 08:22:36;;;;;;;66.65;37.28;;;16.40;84.10;;;;;;5029672;28;20526;-83
2021/09/17 08:25:07;;;;;;;59.75;34.00;;;16.50;84.00;;;;;;5032804;28;20052;-83
2021/09/17 08:27:34;;;;;;;65.57;34.13;;;16.60;83.90;;;;;;5028667;28;20053;-83
2021/09/17 08:30:01;;;;;;;56.92;31.70;;;16.70;83.80;;;;;;5029961;28;20065;-83
2021/09/17 08:32:28;;;;;;;41.75;25.75;;;16.80;83.70;;;;;;5028550;28;20100;-83
2021/09/17 08:34:54;;;;;;;48.05;30.50;;;16.90;83.70;;;;;;5028635;28;20054;-82
2021/09/17 08:37:21;;;;;;;45.33;26.25;;;17.00;83.40;;;;;;5030924;28;20053;-83
2021/09/17 08:39:48;;;;;;;44.97;27.27;;;17.10;83.20;;;;;;5030341;28;20057;-83
2021/09/17 08:42:16;;;;;;;40.47;26.65;;;17.30;82.80;;;;;;5028405;28;20049;-83
2021/09/17 08:44:43;;;;;;;40.65;24.42;;;17.40;82.40;;;;;;5027985;28;20580;-83
2021/09/17 08:47:14;;;;;;;45.83;26.90;;;17.40;82.10;;;;;;5028523;28;20049;-83
2021/09/17 08:49:41;;;;;;;39.65;25.30;;;17.50;81.80;;;;;;5012913;28;20038;-82
2021/09/17 08:52:08;;;;;;;37.67;25.52;;;17.70;81.50;;;;;;5028388;28;20111;-83
2021/09/17 08:54:35;;;;;;;32.17;23.75;;;17.80;81.20;;;;;;5028833;28;20107;-84
2021/09/17 08:57:05;;;;;;;35.70;23.83;;;17.90;81.00;;;;;;5028161;28;20053;-83
2021/09/17 08:59:32;;;;;;;32.25;23.40;;;18.00;80.70;;;;;;5010165;28;20042;-83
2021/09/17 09:02:45;;;;;;;31.95;21.98;;;18.10;80.50;;;;;;5028163;28;20465;-83
2021/09/17 09:05:12;;;;;;;31.25;22.75;;;18.20;80.30;;;;;;4978052;28;20050;-83
2021/09/17 09:07:39;;;;;;;36.50;23.85;;;18.40;80.10;;;;;;4973849;28;20050;-84
2021/09/17 09:10:11;;;;;;;34.28;24.13;;;18.50;80.00;;;;;;4990126;28;20121;-85
2021/09/17 09:12:46;;;;;;;31.10;22.17;;;18.60;79.70;;;;;;4989185;28;20054;-83
2021/09/17 09:15:25;;;;;;;30.52;23.17;;;18.80;79.20;;;;;;4988884;28;20050;-83
2021/09/17 09:17:56;;;;;;;33.65;23.23;;;18.90;78.80;;;;;;4988824;28;20108;-84
2021/09/17 09:20:34;;;;;;;30.77;21.27;;;18.90;78.30;;;;;;4988487;28;20050;-83
2021/09/17 09:23:19;;;;;;;29.67;22.08;;;19.10;77.70;;;;;;4988756;28;20051;-84
2021/09/17 09:25:53;;;;;;;26.92;20.52;;;19.20;77.30;;;;;;4988814;28;20058;-83
2021/09/17 09:28:26;;;;;;;28.60;21.05;;;19.30;77.00;;;;;;4988727;28;20133;-83
2021/09/17 09:30:57;;;;;;;28.75;21.13;;;19.40;76.60;;;;;;4988101;28;20046;-84
2021/09/17 09:33:36;;;;;;;31.98;19.45;;;19.50;76.30;;;;;;4969600;28;20054;-83
2021/09/17 09:36:08;;;;;;;26.45;20.42;;;19.60;75.90;;;;;;5007331;28;20056;-84
2021/09/17 09:38:41;;;;;;;26.27;18.75;;;19.70;75.40;;;;;;5027340;28;20045;-84
2021/09/17 09:41:21;;;;;;;22.05;17.88;;;19.80;75.10;;;;;;5027133;28;20103;-83
2021/09/17 09:43:58;;;;;;;24.55;19.48;;;19.90;74.70;;;;;;5012763;28;20038;-84
2021/09/17 09:46:36;;;;;;;23.23;18.08;;;19.90;74.60;;;;;;5029283;28;20049;-84
2021/09/17 09:49:13;;;;;;;25.65;18.75;;;20.00;74.40;;;;;;5030858;28;20045;-84
2021/09/17 09:51:52;;;;;;;24.55;17.63;;;20.10;74.40;;;;;;5028296;28;20084;-85
2021/09/17 09:54:21;;;;;;;25.52;18.60;;;20.30;74.50;;;;;;5027084;28;20053;-84
2021/09/17 09:56:49;;;;;;;22.80;17.92;;;20.40;74.10;;;;;;5026675;28;20053;-84
2021/09/17 09:59:20;;;;;;;24.13;17.52;;;20.40;73.60;;;;;;5026999;28;20042;-84
2021/09/17 10:01:47;;;;;;;19.63;13.50;;;20.50;73.30;;;;;;5027051;28;20046;-84
2021/09/17 10:04:16;;;;;;;17.38;13.57;;;20.50;73.10;;;;;;5029923;28;20057;-84
2021/09/17 10:06:44;;;;;;;19.85;14.60;;;20.60;72.60;;;;;;5027651;28;20537;-84
2021/09/17 10:09:11;;;;;;;22.08;15.85;;;20.60;72.50;;;;;;5026825;28;20282;-84
2021/09/17 10:11:40;;;;;;;18.80;14.77;;;20.70;72.20;;;;;;5026300;28;20056;-84
2021/09/17 10:14:12;;;;;;;19.52;14.85;;;20.80;72.10;;;;;;5026871;28;20037;-84
2021/09/17 10:16:42;;;;;;;19.77;15.55;;;20.80;72.00;;;;;;5011442;28;20045;-84
2021/09/17 10:19:10;;;;;;;18.17;16.23;;;20.90;71.80;;;;;;5026724;28;20538;-84
2021/09/17 10:21:49;;;;;;;17.80;14.13;;;21.10;72.00;;;;;;5026325;28;20207;-84
2021/09/17 10:24:35;;;;;;;21.45;15.93;;;21.20;72.10;;;;;;5026545;28;20560;-84
2021/09/17 10:27:06;;;;;;;19.95;15.60;;;21.40;71.60;;;;;;5026712;28;20079;-84
2021/09/17 10:29:52;;;;;;;20.35;13.82;;;21.50;71.30;;;;;;5026425;28;20045;-85
2021/09/17 10:32:32;;;;;;;16.85;13.80;;;21.60;70.70;;;;;;5026805;28;20041;-85
2021/09/17 10:35:14;;;;;;;17.27;13.50;;;21.70;70.30;;;;;;5026236;28;20060;-84
2021/09/17 10:38:00;;;;;;;20.85;14.18;;;21.80;70.10;;;;;;5011077;28;20103;-84
2021/09/17 10:40:43;;;;;;;17.67;13.23;;;21.80;69.70;;;;;;5026582;28;20076;-85
2021/09/17 10:43:10;;;;;;;14.67;12.23;;;21.90;69.20;;;;;;5026783;28;20095;-85
2021/09/17 10:45:51;;;;;;;17.25;11.48;;;22.00;69.00;;;;;;5027021;28;20053;-86
2021/09/17 10:48:44;;;;;;;12.70;10.18;;;22.10;68.30;;;;;;5024522;28;20054;-85
2021/09/17 10:51:29;;;;;;;15.20;10.27;;;22.20;67.90;;;;;;5019772;28;20049;-86
2021/09/17 10:54:00;;;;;;;13.88;10.48;;;22.40;67.40;;;;;;5028724;28;20053;-86
2021/09/17 10:56:28;;;;;;;12.82;9.48;;;22.40;67.00;;;;;;5027018;28;20048;-85
2021/09/17 10:59:10;;;;;;;10.90;9.27;;;22.50;66.50;;;;;;5027635;28;20050;-86
2021/09/17 11:02:01;;;;;;;14.57;9.88;;;22.70;66.10;;;;;;5028792;28;20046;-85
2021/09/17 11:04:31;;;;;;;13.05;10.07;;;22.80;65.50;;;;;;5028306;28;20107;-85
2021/09/17 11:07:21;;;;;;;17.10;11.80;;;22.90;65.50;;;;;;5030351;28;20430;-86
2021/09/17 11:09:56;;;;;;;14.68;10.55;;;23.00;65.50;;;;;;5030303;28;20128;-86
2021/09/17 11:12:35;;;;;;;12.32;9.13;;;23.00;65.10;;;;;;5027619;28;20049;-84
2021/09/17 11:15:18;;;;;;;15.18;10.25;;;23.10;64.80;;;;;;5027309;28;20081;-85
2021/09/17 11:17:55;;;;;;;14.10;10.98;;;23.20;64.80;;;;;;5027078;28;20206;-86
2021/09/17 11:20:24;;;;;;;16.10;10.23;;;23.30;64.70;;;;;;5026997;28;20430;-87
2021/09/17 11:23:05;;;;;;;12.38;10.38;;;23.40;64.70;;;;;;5027192;28;20046;-86
2021/09/17 11:25:40;;;;;;;13.02;9.73;;;23.40;64.70;;;;;;5028213;28;20108;-87
2021/09/17 11:28:27;;;;;;;14.18;10.45;;;23.50;64.60;;;;;;5027249;28;20045;-86
2021/09/17 11:31:16;;;;;;;16.75;10.95;;;23.70;64.00;;;;;;5029533;28;20054;-83
2021/09/17 11:33:53;;;;;;;13.15;9.38;;;23.80;64.00;;;;;;5029526;28;20041;-86
2021/09/17 11:36:43;;;;;;;13.88;9.52;;;23.90;63.50;;;;;;5027184;28;20053;-85
2021/09/17 11:39:22;;;;;;;12.95;8.93;;;24.10;63.10;;;;;;5024736;28;20057;-85
2021/09/17 11:41:49;;;;;;;13.63;10.35;;;24.20;62.70;;;;;;5009390;28;20057;-85
2021/09/17 11:44:34;;;;;;;13.23;8.98;;;24.30;62.60;;;;;;5027422;28;20517;-85
2021/09/17 11:47:03;;;;;;;10.65;8.65;;;24.40;62.60;;;;;;5027584;28;20054;-84
2021/09/17 11:49:32;;;;;;;15.73;8.57;;;24.50;62.30;;;;;;5032663;28;20453;-84
2021/09/17 11:52:04;;;;;;;11.77;8.80;;;24.60;61.70;;;;;;5033176;28;20053;-84
2021/09/17 11:54:32;;;;;;;10.90;8.40;;;24.60;61.20;;;;;;5029304;28;20049;-84
2021/09/17 11:57:06;;;;;;;10.15;8.25;;;24.70;60.90;;;;;;5029217;28;20053;-84
2021/09/17 11:59:44;;;;;;;11.43;7.95;;;24.80;60.20;;;;;;5029224;28;20045;-84
2021/09/17 12:02:15;;;;;;;11.70;8.18;;;24.80;60.10;;;;;;5029145;28;20473;-84
2021/09/17 12:04:49;;;;;;;12.60;7.35;;;24.80;60.10;;;;;;5013906;28;20072;-84
2021/09/17 12:07:17;;;;;;;11.27;7.95;;;24.90;60.20;;;;;;5031738;28;20045;-84
2021/09/17 12:09:44;;;;;;;12.02;8.57;;;24.80;60.10;;;;;;5012288;28;20049;-85
2021/09/17 12:12:13;;;;;;;12.27;7.57;;;24.80;60.00;;;;;;5030370;28;20115;-84
2021/09/17 12:14:55;;;;;;;10.50;7.82;;;24.80;59.80;;;;;;5029080;28;20050;-84
2021/09/17 12:17:23;;;;;;;11.82;9.10;;;24.80;59.60;;;;;;5028912;28;20049;-84
2021/09/17 12:20:05;;;;;;;10.50;8.05;;;24.80;59.50;;;;;;5028890;28;20050;-84
2021/09/17 12:22:46;;;;;;;12.77;8.07;;;24.80;59.60;;;;;;5030201;28;20107;-84
2021/09/17 12:25:38;;;;;;;11.10;7.68;;;24.60;60.00;;;;;;5028902;28;20053;-84
2021/09/17 12:28:17;;;;;;;11.88;7.57;;;24.60;59.90;;;;;;4998299;28;20473;-84
2021/09/17 12:30:47;;;;;;;11.15;7.57;;;24.70;60.00;;;;;;5014603;28;20403;-83
2021/09/17 12:33:32;;;;;;;9.48;6.78;;;24.60;60.10;;;;;;5028539;28;20378;-84
2021/09/17 12:36:13;;;;;;;9.20;6.57;;;24.70;59.70;;;;;;5014005;28;20054;-84
2021/09/17 12:38:42;;;;;;;12.45;6.88;;;24.70;59.60;;;;;;5028621;28;20057;-84
2021/09/17 12:41:12;;;;;;;10.60;7.28;;;24.80;59.30;;;;;;5010963;28;20095;-84